EDAC/ADC METAR and TAF weather

Enter ICAO airport designator
Station Type Date Time Source
EDAC METAR 2022/06/28 15:20 UTC NOAA

EDAC 281520Z VRB04KT CAVOK 24/09 Q1020


Station Type Date Time Source
EDAC Decoded METAR 2022/06/28 15:20 UTC NOAA

Altenburg Nobitz, Germany (EDAC) 50-58N 012-30E
Jun 28, 2022 - 11:20 AM EDT / 2022.06.28 1520 UTC
Wind: Variable at 5 MPH (4 KT):0
Visibility: greater than 7 mile(s):0
Temperature: 75 F (24 C)
Dew Point: 48 F (9 C)
Relative Humidity: 38%
Pressure (altimeter): 30.12 in. Hg (1020 hPa)
ob: EDAC 281520Z VRB04KT CAVOK 24/09 Q1020
cycle: 15

Station Type Date Time Source
EDAC TAF UTC NOAA

Error!

Example: see airport list